Time;durP1;ratioP1;P1;durP2;ratioP2;P2;SDS_P1;SDS_P2;PMS_P1;PMS_P2;Temp;Humidity;BMP_temperature;BMP_pressure;BME280_temperature;BME280_humidity;BME280_pressure;Samples;Min_cycle;Max_cycle;Signal;HPM_P1;HPM_P2
2022/05/02 00:00:10;;;;;;;;;;;;;;;;;;5016183;28;19913;-78
2022/05/02 00:02:38;;;;;;;;;;;;;;;;;;5015860;28;20338;-78
2022/05/02 00:05:04;;;;;;;;;;;;;;;;;;4998756;28;20630;-78
2022/05/02 00:07:34;;;;;;;;;;;;;;;;;;5016127;28;20044;-79
2022/05/02 00:10:04;;;;;;;;;;;;;;;;;;4999550;28;19972;-78
2022/05/02 00:12:29;;;;;;;;;;;;;;;;;;5015781;28;19926;-78
2022/05/02 00:14:54;;;;;;;;;;;;;;;;;;5014229;28;20375;-78
2022/05/02 00:17:56;;;;;;;;;;;;;;;;;;5015932;28;19918;-77
2022/05/02 00:20:07;;;;;;;;;;;;;;;;;;4998558;28;20324;-78
2022/05/02 00:22:33;;;;;;;;;;;;;;;;;;5015021;28;19928;-78
2022/05/02 00:25:00;;;;;;;;;;;;;;;;;;5015368;28;19917;-79
2022/05/02 00:27:26;;;;;;;;;;;;;;;;;;5016164;28;19925;-78
2022/05/02 00:29:51;;;;;;;;;;;;;;;;;;5015896;28;20236;-78
2022/05/02 00:32:19;;;;;;;;;;;;;;;;;;5012917;28;20286;-78
2022/05/02 00:34:46;;;;;;;;;;;;;;;;;;4993795;28;19979;-78
2022/05/02 00:37:14;;;;;;;;;;;;;;;;;;4999234;28;19914;-78
2022/05/02 00:39:39;;;;;;;;;;;;;;;;;;5015433;28;19922;-78
2022/05/02 00:42:07;;;;;;;;;;;;;;;;;;4997702;28;19991;-77
2022/05/02 00:44:34;;;;;;;;;;;;;;;;;;5014980;28;19925;-78
2022/05/02 00:46:59;;;;;;;;;;;;;;;;;;5014867;28;19921;-77
2022/05/02 00:49:25;;;;;;;;;;;;;;;;;;5015171;28;19921;-79
2022/05/02 00:51:50;;;;;;;;;;;;;;;;;;5015633;28;19924;-78
2022/05/02 00:54:15;;;;;;;;;;;;;;;;;;4998347;28;19924;-78
2022/05/02 00:56:41;;;;;;;;;;;;;;;;;;4997448;28;19918;-78
2022/05/02 00:59:06;;;;;;;;;;;;;;;;;;4998450;28;19913;-78
2022/05/02 01:01:31;;;;;;;;;;;;;;;;;;5013261;28;19917;-78
2022/05/02 01:03:57;;;;;;;;;;;;;;;;;;5014657;28;19926;-78
2022/05/02 01:09:13;;;;;;;;;;;;;;;;;;5014258;28;20374;-78
2022/05/02 01:11:38;;;;;;;;;;;;;;;;;;5014646;28;19917;-78
2022/05/02 01:14:09;;;;;;;;;;;;;;;;;;5014663;28;19928;-78
2022/05/02 01:16:36;;;;;;;;;;;;;;;;;;5013839;28;19989;-78
2022/05/02 01:19:04;;;;;;;;;;;;;;;;;;4998375;28;19914;-78
2022/05/02 01:21:29;;;;;;;;;;;;;;;;;;5013361;28;19921;-78
2022/05/02 01:23:58;;;;;;;;;;;;;;;;;;4980640;28;19928;-78
2022/05/02 01:26:23;;;;;;;;;;;;;;;;;;5013812;28;19917;-78
2022/05/02 01:28:53;;;;;;;;;;;;;;;;;;5013895;28;20476;-78
2022/05/02 01:31:20;;;;;;;;;;;;;;;;;;4996477;28;20489;-78
2022/05/02 01:33:46;;;;;;;;;;;;;;;;;;4997546;28;19972;-78
2022/05/02 01:36:11;;;;;;;;;;;;;;;;;;5014915;28;19921;-79
2022/05/02 01:38:37;;;;;;;;;;;;;;;;;;4997901;28;20001;-79
2022/05/02 01:41:05;;;;;;;;;;;;;;;;;;4997661;28;19913;-78
2022/05/02 01:43:31;;;;;;;;;;;;;;;;;;5014831;28;19917;-78
2022/05/02 01:46:00;;;;;;;;;;;;;;;;;;5013530;28;19925;-78
2022/05/02 01:48:26;;;;;;;;;;;;;;;;;;5020281;28;20024;-79
2022/05/02 01:50:51;;;;;;;;;;;;;;;;;;4997454;28;19999;-78
2022/05/02 01:53:19;;;;;;;;;;;;;;;;;;5014534;28;19975;-79
2022/05/02 01:55:44;;;;;;;;;;;;;;;;;;4997576;28;20338;-79
2022/05/02 01:58:12;;;;;;;;;;;;;;;;;;4996942;28;19917;-79
2022/05/02 02:00:37;;;;;;;;;;;;;;;;;;4995466;28;19918;-78
2022/05/02 02:03:03;;;;;;;;;;;;;;;;;;5011108;28;20745;-79
2022/05/02 02:08:12;;;;;;;;;;;;;;;;;;4999636;28;20053;-78
2022/05/02 02:10:38;;;;;;;;;;;;;;;;;;5014503;28;20382;-78
2022/05/02 02:13:03;;;;;;;;;;;;;;;;;;5014308;28;19917;-78
2022/05/02 02:15:28;;;;;;;;;;;;;;;;;;5016410;28;19944;-78
2022/05/02 02:17:56;;;;;;;;;;;;;;;;;;4999656;28;19921;-79
2022/05/02 02:20:21;;;;;;;;;;;;;;;;;;5019042;28;19979;-79
2022/05/02 02:22:47;;;;;;;;;;;;;;;;;;5002707;28;20330;-78
2022/05/02 02:25:12;;;;;;;;;;;;;;;;;;5000640;28;20004;-78
2022/05/02 02:27:37;;;;;;;;;;;;;;;;;;5017452;28;20339;-78
2022/05/02 02:30:02;;;;;;;;;;;;;;;;;;5017384;28;20377;-79
2022/05/02 02:32:28;;;;;;;;;;;;;;;;;;5000772;28;19917;-79
2022/05/02 02:34:55;;;;;;;;;;;;;;;;;;5000559;28;19918;-78
2022/05/02 02:37:25;;;;;;;;;;;;;;;;;;4984467;28;19917;-78
2022/05/02 02:39:53;;;;;;;;;;;;;;;;;;5017493;28;20347;-79
2022/05/02 02:42:18;;;;;;;;;;;;;;;;;;4999862;28;20374;-78
2022/05/02 02:44:43;;;;;;;;;;;;;;;;;;5017441;28;19972;-78
2022/05/02 02:47:09;;;;;;;;;;;;;;;;;;4984345;28;19917;-78
2022/05/02 02:49:34;;;;;;;;;;;;;;;;;;5016646;28;19921;-78
2022/05/02 02:51:59;;;;;;;;;;;;;;;;;;5017766;28;19918;-78
2022/05/02 02:54:26;;;;;;;;;;;;;;;;;;5017824;28;19932;-78
2022/05/02 02:56:54;;;;;;;;;;;;;;;;;;5017538;28;19922;-78
2022/05/02 02:59:21;;;;;;;;;;;;;;;;;;5016940;28;20381;-78
2022/05/02 03:01:49;;;;;;;;;;;;;;;;;;5017338;28;19932;-78
2022/05/02 03:07:01;;;;;;;;;;;;;;;;;;5003771;28;20392;-78
2022/05/02 03:09:26;;;;;;;;;;;;;;;;;;5017198;28;19929;-78
2022/05/02 03:11:51;;;;;;;;;;;;;;;;;;4999705;28;20000;-78
2022/05/02 03:14:21;;;;;;;;;;;;;;;;;;4999488;28;19964;-78
2022/05/02 03:16:46;;;;;;;;;;;;;;;;;;5001169;28;20055;-79
2022/05/02 03:19:11;;;;;;;;;;;;;;;;;;5016369;28;20000;-79
2022/05/02 03:21:39;;;;;;;;;;;;;;;;;;5000117;28;19914;-79
2022/05/02 03:24:05;;;;;;;;;;;;;;;;;;4999782;28;19917;-78
2022/05/02 03:26:32;;;;;;;;;;;;;;;;;;5016846;28;19917;-79
2022/05/02 03:28:57;;;;;;;;;;;;;;;;;;5017084;28;19932;-79
2022/05/02 03:31:23;;;;;;;;;;;;;;;;;;5017246;28;19918;-78
2022/05/02 03:33:51;;;;;;;;;;;;;;;;;;4999698;28;19917;-78
2022/05/02 03:36:16;;;;;;;;;;;;;;;;;;5017510;28;19914;-78
2022/05/02 03:38:44;;;;;;;;;;;;;;;;;;5000202;28;20373;-77
2022/05/02 03:41:09;;;;;;;;;;;;;;;;;;5017476;28;19917;-78
2022/05/02 03:43:35;;;;;;;;;;;;;;;;;;5016997;28;19984;-78
2022/05/02 03:46:01;;;;;;;;;;;;;;;;;;4999522;28;19917;-78
2022/05/02 03:48:28;;;;;;;;;;;;;;;;;;4999050;28;19936;-77
2022/05/02 03:50:53;;;;;;;;;;;;;;;;;;5016969;28;19983;-78
2022/05/02 03:53:19;;;;;;;;;;;;;;;;;;5016224;28;20338;-78
2022/05/02 03:55:45;;;;;;;;;;;;;;;;;;4999760;28;19929;-78
2022/05/02 03:58:12;;;;;;;;;;;;;;;;;;4999491;28;19910;-78
2022/05/02 04:00:38;;;;;;;;;;;;;;;;;;5015804;28;19929;-79
2022/05/02 04:03:03;;;;;;;;;;;;;;;;;;5015341;28;19917;-78
2022/05/02 04:05:30;;;;;;;;;;;;;;;;;;5015645;28;19918;-77
2022/05/02 04:07:56;;;;;;;;;;;;;;;;;;4998139;28;19917;-79
2022/05/02 04:10:21;;;;;;;;;;;;;;;;;;4998104;28;19913;-77
2022/05/02 04:12:46;;;;;;;;;;;;;;;;;;4998288;28;19917;-78
2022/05/02 04:15:14;;;;;;;;;;;;;;;;;;4999213;28;19940;-78
2022/05/02 04:17:39;;;;;;;;;;;;;;;;;;5015593;28;20015;-78
2022/05/02 04:20:05;;;;;;;;;;;;;;;;;;4997941;28;20434;-78
2022/05/02 04:22:30;;;;;;;;;;;;;;;;;;4999386;28;20015;-78
2022/05/02 04:25:00;;;;;;;;;;;;;;;;;;4998903;28;19913;-78
2022/05/02 04:27:28;;;;;;;;;;;;;;;;;;4998491;28;20008;-78
2022/05/02 04:29:54;;;;;;;;;;;;;;;;;;5015671;28;19920;-78
2022/05/02 04:32:19;;;;;;;;;;;;;;;;;;4998434;28;19921;-79
2022/05/02 04:34:44;;;;;;;;;;;;;;;;;;4981759;28;19921;-78
2022/05/02 04:37:09;;;;;;;;;;;;;;;;;;4981876;28;19921;-78
2022/05/02 04:39:34;;;;;;;;;;;;;;;;;;5015815;28;19918;-78
2022/05/02 04:42:02;;;;;;;;;;;;;;;;;;4999029;28;19957;-79
2022/05/02 04:44:31;;;;;;;;;;;;;;;;;;5015163;28;19917;-78
2022/05/02 04:46:56;;;;;;;;;;;;;;;;;;5016130;28;19963;-77
2022/05/02 04:49:26;;;;;;;;;;;;;;;;;;5014771;28;19979;-79
2022/05/02 04:51:51;;;;;;;;;;;;;;;;;;4982575;28;20255;-78
2022/05/02 04:54:19;;;;;;;;;;;;;;;;;;4999261;28;19929;-78
2022/05/02 04:56:44;;;;;;;;;;;;;;;;;;5015274;28;19917;-78
2022/05/02 04:59:12;;;;;;;;;;;;;;;;;;4998440;28;19917;-78
2022/05/02 05:01:39;;;;;;;;;;;;;;;;;;5014871;28;20385;-78
2022/05/02 05:04:05;;;;;;;;;;;;;;;;;;5014261;28;19914;-78
2022/05/02 05:06:32;;;;;;;;;;;;;;;;;;4997796;28;19917;-79
2022/05/02 05:08:58;;;;;;;;;;;;;;;;;;4997500;28;19947;-79
2022/05/02 05:11:41;;;;;;;;;;;;;;;;;;5011835;28;20339;-78
2022/05/02 05:17:03;;;;;;;;;;;;;;;;;;5011623;28;19948;-79
2022/05/02 05:19:44;;;;;;;;;;;;;;;;;;5005148;28;19917;-79
2022/05/02 05:22:24;;;;;;;;;;;;;;;;;;5013334;28;19999;-79
2022/05/02 05:24:58;;;;;;;;;;;;;;;;;;5014025;28;20296;-78
2022/05/02 05:27:42;;;;;;;;;;;;;;;;;;5012844;28;19964;-78
2022/05/02 05:30:07;;;;;;;;;;;;;;;;;;5013671;28;19944;-79
2022/05/02 05:32:43;;;;;;;;;;;;;;;;;;5011243;28;20355;-80
2022/05/02 05:35:09;;;;;;;;;;;;;;;;;;5013982;28;20026;-79
2022/05/02 05:37:53;;;;;;;;;;;;;;;;;;4996602;28;20048;-79
2022/05/02 05:40:39;;;;;;;;;;;;;;;;;;5011317;28;19918;-80
2022/05/02 05:43:19;;;;;;;;;;;;;;;;;;4996321;28;19974;-78
2022/05/02 05:46:05;;;;;;;;;;;;;;;;;;5014599;28;19917;-78
2022/05/02 05:48:50;;;;;;;;;;;;;;;;;;5014317;28;19960;-78
2022/05/02 05:51:24;;;;;;;;;;;;;;;;;;4996624;28;19925;-79
2022/05/02 05:53:56;;;;;;;;;;;;;;;;;;5014645;28;20438;-78
2022/05/02 05:56:33;;;;;;;;;;;;;;;;;;4981273;28;19917;-79
2022/05/02 05:59:24;;;;;;;;;;;;;;;;;;5014955;28;20346;-78
2022/05/02 06:02:06;;;;;;;;;;;;;;;;;;5005074;28;19921;-78
2022/05/02 06:04:33;;;;;;;;;;;;;;;;;;4999447;28;19984;-78
2022/05/02 06:06:58;;;;;;;;;;;;;;;;;;4997189;28;20019;-79
2022/05/02 06:09:27;;;;;;;;;;;;;;;;;;5014569;28;20004;-78
2022/05/02 06:11:55;;;;;;;;;;;;;;;;;;5014692;28;19917;-78
2022/05/02 06:14:25;;;;;;;;;;;;;;;;;;5014354;28;19921;-79
2022/05/02 06:19:37;;;;;;;;;;;;;;;;;;4999849;28;19943;-76
2022/05/02 06:22:03;;;;;;;;;;;;;;;;;;4991424;28;19918;-77
2022/05/02 06:24:30;;;;;;;;;;;;;;;;;;4991133;28;19917;-78
2022/05/02 06:26:59;;;;;;;;;;;;;;;;;;4997754;28;20247;-78
2022/05/02 06:29:27;;;;;;;;;;;;;;;;;;4997848;28;19918;-78
2022/05/02 06:31:54;;;;;;;;;;;;;;;;;;5011740;28;19917;-79
2022/05/02 06:34:23;;;;;;;;;;;;;;;;;;4997066;28;20270;-77
2022/05/02 06:36:51;;;;;;;;;;;;;;;;;;5012875;28;20362;-78
2022/05/02 06:39:28;;;;;;;;;;;;;;;;;;5014038;28;19917;-77
2022/05/02 06:42:06;;;;;;;;;;;;;;;;;;5006923;28;19914;-77
2022/05/02 06:44:35;;;;;;;;;;;;;;;;;;5016161;28;19929;-78
2022/05/02 06:47:23;;;;;;;;;;;;;;;;;;4995983;28;19913;-77
2022/05/02 06:49:52;;;;;;;;;;;;;;;;;;5014646;28;19925;-77
2022/05/02 06:52:22;;;;;;;;;;;;;;;;;;5014536;28;19913;-79
2022/05/02 06:54:52;;;;;;;;;;;;;;;;;;4991521;28;19924;-77
2022/05/02 06:57:17;;;;;;;;;;;;;;;;;;4996476;28;19918;-77
2022/05/02 06:59:49;;;;;;;;;;;;;;;;;;5013920;28;20313;-78
2022/05/02 07:02:32;;;;;;;;;;;;;;;;;;5001553;28;20343;-77
2022/05/02 07:04:57;;;;;;;;;;;;;;;;;;5018141;28;19918;-77
2022/05/02 07:08:09;;;;;;;;;;;;;;;;;;4999740;28;19940;-78
2022/05/02 07:10:34;;;;;;;;;;;;;;;;;;4947053;28;19925;-78
2022/05/02 07:13:22;;;;;;;;;;;;;;;;;;5017419;28;19930;-76
2022/05/02 07:15:51;;;;;;;;;;;;;;;;;;4999885;28;19992;-76
2022/05/02 07:18:16;;;;;;;;;;;;;;;;;;5019653;28;19917;-76
2022/05/02 07:20:44;;;;;;;;;;;;;;;;;;5019591;28;19921;-76
2022/05/02 07:23:09;;;;;;;;;;;;;;;;;;5016970;28;19992;-77
2022/05/02 07:25:37;;;;;;;;;;;;;;;;;;4999619;28;20006;-76
2022/05/02 07:28:32;;;;;;;;;;;;;;;;;;4999850;28;19917;-76
2022/05/02 07:30:57;;;;;;;;;;;;;;;;;;4999590;28;20347;-74
2022/05/02 07:33:24;;;;;;;;;;;;;;;;;;4999320;28;20004;-73
2022/05/02 07:35:51;;;;;;;;;;;;;;;;;;4999933;28;19924;-73
2022/05/02 07:38:17;;;;;;;;;;;;;;;;;;5000255;28;19913;-73
2022/05/02 07:41:22;;;;;;;;;;;;;;;;;;5000683;28;19928;-74
2022/05/02 07:43:30;;;;;;;;;;;;;;;;;;5002810;28;20399;-74
2022/05/02 07:45:58;;;;;;;;;;;;;;;;;;5000346;28;19953;-73
2022/05/02 07:48:26;;;;;;;;;;;;;;;;;;4999959;28;19918;-72
2022/05/02 07:50:51;;;;;;;;;;;;;;;;;;4999852;28;19918;-73
2022/05/02 07:53:21;;;;;;;;;;;;;;;;;;4999897;28;20036;-73
2022/05/02 07:55:46;;;;;;;;;;;;;;;;;;5000029;28;20347;-72
2022/05/02 07:58:14;;;;;;;;;;;;;;;;;;5016935;28;19967;-73
2022/05/02 08:00:41;;;;;;;;;;;;;;;;;;5000161;28;20232;-73
2022/05/02 08:03:07;;;;;;;;;;;;;;;;;;5016981;28;19972;-73
2022/05/02 08:05:34;;;;;;;;;;;;;;;;;;5016866;28;19913;-73
2022/05/02 08:08:03;;;;;;;;;;;;;;;;;;4999751;28;19927;-73
2022/05/02 08:10:29;;;;;;;;;;;;;;;;;;4996735;28;19913;-73
2022/05/02 08:12:55;;;;;;;;;;;;;;;;;;5015829;28;20412;-74
2022/05/02 08:15:25;;;;;;;;;;;;;;;;;;5016679;28;19921;-74
2022/05/02 08:18:14;;;;;;;;;;;;;;;;;;5016734;28;20059;-74
2022/05/02 08:20:40;;;;;;;;;;;;;;;;;;4999796;28;20339;-74
2022/05/02 08:28:47;;;;;;;;;;;;;;;;;;5002154;28;20013;-74
2022/05/02 08:31:25;;;;;;;;;;;;;;;;;;5015980;28;20012;-74
2022/05/02 08:33:54;;;;;;;;;;;;;;;;;;4999153;28;19917;-74
2022/05/02 08:36:32;;;;;;;;;;;;;;;;;;5017405;28;19918;-74
2022/05/02 08:39:02;;;;;;;;;;;;;;;;;;5000329;28;19914;-75
2022/05/02 08:41:30;;;;;;;;;;;;;;;;;;5016045;28;19968;-74
2022/05/02 08:44:01;;;;;;;;;;;;;;;;;;5016361;28;19948;-74
2022/05/02 08:46:26;;;;;;;;;;;;;;;;;;5016184;28;19917;-73
2022/05/02 08:52:06;;;;;;;;;;;;;;;;;;5015594;28;20282;-73
2022/05/02 08:54:40;;;;;;;;;;;;;;;;;;5011363;28;19917;-75
2022/05/02 08:57:24;;;;;;;;;;;;;;;;;;4998483;28;19945;-74
2022/05/02 09:00:09;;;;;;;;;;;;;;;;;;5015941;28;19921;-75
2022/05/02 09:02:53;;;;;;;;;;;;;;;;;;5015854;28;20380;-74
2022/05/02 09:05:26;;;;;;;;;;;;;;;;;;4998634;28;19924;-74
2022/05/02 09:07:54;;;;;;;;;;;;;;;;;;5015946;28;19925;-74
2022/05/02 09:10:27;;;;;;;;;;;;;;;;;;4998633;28;20118;-75
2022/05/02 09:13:11;;;;;;;;;;;;;;;;;;4998566;28;19929;-75
2022/05/02 09:15:53;;;;;;;;;;;;;;;;;;5015892;28;20003;-74
2022/05/02 09:18:34;;;;;;;;;;;;;;;;;;5015817;28;19914;-74
2022/05/02 09:21:00;;;;;;;;;;;;;;;;;;5015487;28;19963;-74
2022/05/02 09:23:25;;;;;;;;;;;;;;;;;;4998476;28;19913;-74
2022/05/02 09:26:03;;;;;;;;;;;;;;;;;;5015415;28;19928;-75
2022/05/02 09:28:29;;;;;;;;;;;;;;;;;;4998248;28;19988;-74
2022/05/02 09:31:16;;;;;;;;;;;;;;;;;;5015533;28;19917;-74
2022/05/02 09:34:00;;;;;;;;;;;;;;;;;;5015921;28;19949;-74
2022/05/02 09:36:27;;;;;;;;;;;;;;;;;;5015720;28;19921;-74
2022/05/02 09:39:03;;;;;;;;;;;;;;;;;;5015308;28;19917;-74
2022/05/02 09:41:47;;;;;;;;;;;;;;;;;;5015700;28;19918;-74
2022/05/02 09:49:53;;;;;;;;;;;;;;;;;;5015548;28;20373;-74
2022/05/02 09:52:25;;;;;;;;;;;;;;;;;;5015385;28;19914;-74
2022/05/02 09:57:41;;;;;;;;;;;;;;;;;;5015486;28;19950;-74
2022/05/02 10:02:53;;;;;;;;;;;;;;;;;;5015324;28;19928;-74
2022/05/02 10:05:22;;;;;;;;;;;;;;;;;;4998145;28;19914;-74
2022/05/02 10:07:54;;;;;;;;;;;;;;;;;;4998194;28;19989;-74
2022/05/02 10:10:30;;;;;;;;;;;;;;;;;;5015062;28;19914;-74
2022/05/02 10:13:04;;;;;;;;;;;;;;;;;;4998054;28;19917;-74
2022/05/02 10:15:45;;;;;;;;;;;;;;;;;;4998800;28;19921;-75
2022/05/02 10:18:13;;;;;;;;;;;;;;;;;;4998043;28;19921;-75
2022/05/02 10:20:57;;;;;;;;;;;;;;;;;;4998102;28;19925;-74
2022/05/02 10:23:44;;;;;;;;;;;;;;;;;;5015174;28;20220;-74
2022/05/02 10:26:27;;;;;;;;;;;;;;;;;;5010082;28;20004;-74
2022/05/02 10:28:53;;;;;;;;;;;;;;;;;;5014960;28;19917;-75
2022/05/02 10:31:25;;;;;;;;;;;;;;;;;;5014670;28;20263;-76
2022/05/02 10:33:51;;;;;;;;;;;;;;;;;;4998191;28;19913;-75
2022/05/02 10:36:18;;;;;;;;;;;;;;;;;;5018066;28;19913;-75
2022/05/02 10:38:51;;;;;;;;;;;;;;;;;;5018767;28;20324;-74
2022/05/02 10:41:19;;;;;;;;;;;;;;;;;;5001723;28;19906;-75
2022/05/02 10:43:49;;;;;;;;;;;;;;;;;;5018516;28;19914;-74
2022/05/02 10:46:14;;;;;;;;;;;;;;;;;;5001467;28;19913;-74
2022/05/02 10:48:41;;;;;;;;;;;;;;;;;;5017671;28;20232;-74
2022/05/02 10:51:21;;;;;;;;;;;;;;;;;;5018490;28;19924;-75
2022/05/02 10:53:52;;;;;;;;;;;;;;;;;;5005479;28;19970;-74
2022/05/02 10:56:22;;;;;;;;;;;;;;;;;;5016599;28;20277;-74
2022/05/02 10:58:47;;;;;;;;;;;;;;;;;;5001101;28;19917;-75
2022/05/02 11:01:15;;;;;;;;;;;;;;;;;;5000744;28;19924;-74
2022/05/02 11:03:42;;;;;;;;;;;;;;;;;;5018178;28;20007;-75
2022/05/02 11:06:20;;;;;;;;;;;;;;;;;;5018270;28;19976;-74
2022/05/02 11:08:54;;;;;;;;;;;;;;;;;;5000579;28;19925;-74
2022/05/02 11:11:25;;;;;;;;;;;;;;;;;;5000587;28;19936;-74
2022/05/02 11:13:57;;;;;;;;;;;;;;;;;;5017629;28;19922;-74
2022/05/02 11:16:26;;;;;;;;;;;;;;;;;;5000760;28;19948;-75
2022/05/02 11:22:08;;;;;;;;;;;;;;;;;;5017984;28;20009;-75
2022/05/02 11:24:46;;;;;;;;;;;;;;;;;;4974307;28;19979;-74
2022/05/02 11:27:30;;;;;;;;;;;;;;;;;;5017818;28;20417;-74
2022/05/02 11:30:03;;;;;;;;;;;;;;;;;;5017659;28;20343;-74
2022/05/02 11:32:34;;;;;;;;;;;;;;;;;;5017738;28;19918;-74
2022/05/02 11:35:05;;;;;;;;;;;;;;;;;;5017564;28;19913;-74
2022/05/02 11:37:40;;;;;;;;;;;;;;;;;;5017024;28;20016;-75
2022/05/02 11:40:06;;;;;;;;;;;;;;;;;;4984233;28;19914;-73
2022/05/02 11:42:34;;;;;;;;;;;;;;;;;;5000358;28;20297;-74
2022/05/02 11:45:09;;;;;;;;;;;;;;;;;;5000223;28;19970;-74
2022/05/02 11:47:54;;;;;;;;;;;;;;;;;;5015830;28;20004;-74
2022/05/02 11:50:22;;;;;;;;;;;;;;;;;;5011260;28;19968;-74
2022/05/02 11:52:54;;;;;;;;;;;;;;;;;;5017120;28;19921;-74
2022/05/02 11:55:32;;;;;;;;;;;;;;;;;;4983920;28;20015;-74
2022/05/02 11:58:00;;;;;;;;;;;;;;;;;;5016816;28;19917;-73
2022/05/02 12:00:29;;;;;;;;;;;;;;;;;;5017237;28;19921;-75
2022/05/02 12:03:04;;;;;;;;;;;;;;;;;;5000282;28;20020;-73
2022/05/02 12:05:32;;;;;;;;;;;;;;;;;;5016987;28;19917;-75
2022/05/02 12:08:02;;;;;;;;;;;;;;;;;;5016977;28;19932;-74
2022/05/02 12:10:36;;;;;;;;;;;;;;;;;;5016932;28;19924;-75
2022/05/02 12:13:02;;;;;;;;;;;;;;;;;;5016800;28;19913;-74
2022/05/02 12:15:27;;;;;;;;;;;;;;;;;;4999777;28;19928;-74
2022/05/02 12:17:54;;;;;;;;;;;;;;;;;;5000188;28;19924;-73
2022/05/02 12:20:24;;;;;;;;;;;;;;;;;;5016648;28;19925;-75
2022/05/02 12:23:10;;;;;;;;;;;;;;;;;;5017003;28;19917;-75
2022/05/02 12:25:36;;;;;;;;;;;;;;;;;;5010357;28;19940;-74
2022/05/02 12:28:04;;;;;;;;;;;;;;;;;;4999494;28;20357;-75
2022/05/02 12:30:32;;;;;;;;;;;;;;;;;;4999399;28;19913;-75
2022/05/02 12:33:04;;;;;;;;;;;;;;;;;;4999540;28;19914;-74
2022/05/02 12:35:38;;;;;;;;;;;;;;;;;;5016781;28;19918;-73
2022/05/02 12:38:09;;;;;;;;;;;;;;;;;;4999376;28;19924;-75
2022/05/02 12:40:34;;;;;;;;;;;;;;;;;;4999414;28;20342;-74
2022/05/02 12:43:03;;;;;;;;;;;;;;;;;;5016138;28;19914;-73
2022/05/02 12:45:28;;;;;;;;;;;;;;;;;;4999519;28;19957;-74
2022/05/02 12:47:55;;;;;;;;;;;;;;;;;;4982290;28;19971;-74
2022/05/02 12:50:21;;;;;;;;;;;;;;;;;;4999179;28;20362;-74
2022/05/02 12:52:50;;;;;;;;;;;;;;;;;;5016918;28;19917;-74
2022/05/02 12:55:19;;;;;;;;;;;;;;;;;;4999972;28;19913;-74
2022/05/02 13:00:40;;;;;;;;;;;;;;;;;;5015685;28;19976;-75
2022/05/02 13:03:17;;;;;;;;;;;;;;;;;;4982889;28;19983;-74
2022/05/02 13:05:45;;;;;;;;;;;;;;;;;;5015355;28;20365;-75
2022/05/02 13:08:10;;;;;;;;;;;;;;;;;;5015253;28;20585;-75
2022/05/02 13:10:35;;;;;;;;;;;;;;;;;;4998107;28;20020;-75
2022/05/02 13:13:05;;;;;;;;;;;;;;;;;;4997915;28;19913;-75
2022/05/02 13:15:36;;;;;;;;;;;;;;;;;;5015540;28;19917;-75
2022/05/02 13:18:04;;;;;;;;;;;;;;;;;;4997924;28;19960;-74
2022/05/02 13:20:32;;;;;;;;;;;;;;;;;;4998228;28;20101;-74
2022/05/02 13:22:59;;;;;;;;;;;;;;;;;;5015283;28;20000;-75
2022/05/02 13:25:43;;;;;;;;;;;;;;;;;;4997904;28;20056;-75
2022/05/02 13:28:08;;;;;;;;;;;;;;;;;;5015113;28;19917;-75
2022/05/02 13:30:33;;;;;;;;;;;;;;;;;;5015189;28;19925;-74
2022/05/02 13:33:06;;;;;;;;;;;;;;;;;;5014290;28;20020;-75
2022/05/02 13:35:34;;;;;;;;;;;;;;;;;;4998265;28;19917;-75
2022/05/02 13:38:00;;;;;;;;;;;;;;;;;;4997814;28;19921;-75
2022/05/02 13:40:48;;;;;;;;;;;;;;;;;;5015236;28;19914;-76
2022/05/02 13:43:34;;;;;;;;;;;;;;;;;;4978298;28;20417;-74
2022/05/02 13:45:59;;;;;;;;;;;;;;;;;;4970240;28;19920;-75
2022/05/02 13:48:37;;;;;;;;;;;;;;;;;;4997248;28;20020;-75
2022/05/02 13:51:07;;;;;;;;;;;;;;;;;;4997724;28;20001;-75
2022/05/02 13:53:43;;;;;;;;;;;;;;;;;;4998375;28;19913;-74
2022/05/02 13:56:27;;;;;;;;;;;;;;;;;;5014877;28;20417;-74
2022/05/02 13:58:56;;;;;;;;;;;;;;;;;;5014587;28;19917;-74
2022/05/02 14:01:35;;;;;;;;;;;;;;;;;;4997687;28;19924;-74
2022/05/02 14:04:19;;;;;;;;;;;;;;;;;;4997412;28;19917;-75
2022/05/02 14:09:33;;;;;;;;;;;;;;;;;;4998715;28;19921;-74
2022/05/02 14:11:58;;;;;;;;;;;;;;;;;;5018838;28;20371;-74
2022/05/02 14:14:23;;;;;;;;;;;;;;;;;;5018684;28;19952;-74
2022/05/02 14:16:49;;;;;;;;;;;;;;;;;;5018786;28;19920;-75
2022/05/02 14:19:20;;;;;;;;;;;;;;;;;;5001343;28;19924;-75
2022/05/02 14:21:47;;;;;;;;;;;;;;;;;;5018424;28;19932;-74
2022/05/02 14:24:12;;;;;;;;;;;;;;;;;;5018717;28;19940;-75
2022/05/02 14:26:38;;;;;;;;;;;;;;;;;;5018826;28;20471;-76
2022/05/02 14:29:08;;;;;;;;;;;;;;;;;;5001428;28;19924;-74
2022/05/02 14:31:37;;;;;;;;;;;;;;;;;;4984991;28;19992;-74
2022/05/02 14:34:07;;;;;;;;;;;;;;;;;;5001129;28;19918;-75
2022/05/02 14:36:36;;;;;;;;;;;;;;;;;;4984974;28;20409;-74
2022/05/02 14:39:04;;;;;;;;;;;;;;;;;;5002102;28;19925;-74
2022/05/02 14:41:32;;;;;;;;;;;;;;;;;;5001012;28;19914;-74
2022/05/02 14:43:58;;;;;;;;;;;;;;;;;;5001509;28;19917;-74
2022/05/02 14:46:24;;;;;;;;;;;;;;;;;;4984678;28;19976;-74
2022/05/02 14:48:51;;;;;;;;;;;;;;;;;;5001533;28;20314;-74
2022/05/02 14:51:17;;;;;;;;;;;;;;;;;;4984780;28;20254;-74
2022/05/02 14:53:42;;;;;;;;;;;;;;;;;;5017989;28;19913;-75
2022/05/02 14:56:12;;;;;;;;;;;;;;;;;;5000612;28;19917;-75
2022/05/02 14:58:39;;;;;;;;;;;;;;;;;;5017867;28;19913;-74
2022/05/02 15:01:08;;;;;;;;;;;;;;;;;;5000623;28;19924;-73
2022/05/02 15:03:34;;;;;;;;;;;;;;;;;;5000873;28;19913;-74
2022/05/02 15:06:08;;;;;;;;;;;;;;;;;;5000343;28;19918;-74
2022/05/02 15:08:40;;;;;;;;;;;;;;;;;;5018072;28;19921;-74
2022/05/02 15:11:06;;;;;;;;;;;;;;;;;;5017740;28;19918;-74
2022/05/02 15:13:34;;;;;;;;;;;;;;;;;;5017701;28;19928;-74
2022/05/02 15:16:07;;;;;;;;;;;;;;;;;;5017413;28;19929;-74
2022/05/02 15:21:39;;;;;;;;;;;;;;;;;;5017341;28;19967;-73
2022/05/02 15:24:23;;;;;;;;;;;;;;;;;;5000948;28;19913;-74
2022/05/02 15:26:49;;;;;;;;;;;;;;;;;;5017682;28;19917;-74
2022/05/02 15:37:37;;;;;;;;;;;;;;;;;;5018018;28;20370;-74
2022/05/02 15:40:21;;;;;;;;;;;;;;;;;;5017692;28;19968;-74
2022/05/02 15:43:05;;;;;;;;;;;;;;;;;;5017253;28;20001;-73
2022/05/02 15:45:34;;;;;;;;;;;;;;;;;;5017927;28;19922;-76
2022/05/02 15:47:59;;;;;;;;;;;;;;;;;;5017429;28;19925;-76
2022/05/02 15:50:27;;;;;;;;;;;;;;;;;;5000359;28;19924;-77
2022/05/02 15:52:53;;;;;;;;;;;;;;;;;;5017170;28;19975;-76
2022/05/02 15:55:18;;;;;;;;;;;;;;;;;;5016315;28;19921;-76
2022/05/02 15:57:43;;;;;;;;;;;;;;;;;;4999862;28;19921;-76
2022/05/02 16:00:16;;;;;;;;;;;;;;;;;;5017443;28;20255;-76
2022/05/02 16:02:45;;;;;;;;;;;;;;;;;;5017097;28;20254;-78
2022/05/02 16:05:15;;;;;;;;;;;;;;;;;;5017033;28;19991;-76
2022/05/02 16:10:33;;;;;;;;;;;;;;;;;;5017172;28;19923;-76
2022/05/02 16:12:58;;;;;;;;;;;;;;;;;;5016705;28;20004;-76
2022/05/02 16:15:27;;;;;;;;;;;;;;;;;;4983786;28;20000;-76
2022/05/02 16:18:00;;;;;;;;;;;;;;;;;;5016449;28;19917;-77
2022/05/02 16:20:25;;;;;;;;;;;;;;;;;;4994097;28;19927;-75
2022/05/02 16:22:54;;;;;;;;;;;;;;;;;;5010592;28;19914;-76
2022/05/02 16:25:27;;;;;;;;;;;;;;;;;;5016935;28;19914;-76
2022/05/02 16:27:53;;;;;;;;;;;;;;;;;;4994223;28;20258;-77
2022/05/02 16:30:22;;;;;;;;;;;;;;;;;;5016958;28;19917;-77
2022/05/02 16:32:48;;;;;;;;;;;;;;;;;;4999480;28;19925;-77
2022/05/02 16:35:17;;;;;;;;;;;;;;;;;;5016892;28;19939;-77
2022/05/02 16:37:45;;;;;;;;;;;;;;;;;;4983513;28;19914;-77
2022/05/02 16:40:12;;;;;;;;;;;;;;;;;;4999775;28;20215;-77
2022/05/02 16:42:38;;;;;;;;;;;;;;;;;;5016288;28;20008;-76
2022/05/02 16:45:05;;;;;;;;;;;;;;;;;;5016564;28;20354;-76
2022/05/02 16:47:30;;;;;;;;;;;;;;;;;;4999238;28;19921;-76
2022/05/02 16:49:56;;;;;;;;;;;;;;;;;;5016441;28;19924;-76
2022/05/02 16:52:21;;;;;;;;;;;;;;;;;;4999226;28;20394;-76
2022/05/02 16:54:46;;;;;;;;;;;;;;;;;;4999271;28;19913;-76
2022/05/02 16:57:14;;;;;;;;;;;;;;;;;;5002943;28;19918;-76
2022/05/02 16:59:39;;;;;;;;;;;;;;;;;;5015607;28;20027;-76
2022/05/02 17:02:11;;;;;;;;;;;;;;;;;;5015736;28;19985;-76
2022/05/02 17:04:47;;;;;;;;;;;;;;;;;;5016221;28;20016;-76
2022/05/02 17:07:15;;;;;;;;;;;;;;;;;;5015731;28;20335;-75
2022/05/02 17:09:41;;;;;;;;;;;;;;;;;;5015783;28;20259;-75
2022/05/02 17:12:09;;;;;;;;;;;;;;;;;;5016096;28;19914;-75
2022/05/02 17:14:34;;;;;;;;;;;;;;;;;;5015726;28;20259;-75
2022/05/02 17:17:02;;;;;;;;;;;;;;;;;;5015930;28;19917;-76
2022/05/02 17:19:28;;;;;;;;;;;;;;;;;;5015810;28;19913;-74
2022/05/02 17:21:57;;;;;;;;;;;;;;;;;;5015779;28;19971;-75
2022/05/02 17:24:23;;;;;;;;;;;;;;;;;;4998688;28;19968;-76
2022/05/02 17:26:52;;;;;;;;;;;;;;;;;;5015749;28;20311;-75
2022/05/02 17:29:18;;;;;;;;;;;;;;;;;;5015675;28;19918;-75
2022/05/02 17:31:46;;;;;;;;;;;;;;;;;;4997821;28;20008;-75
2022/05/02 17:34:11;;;;;;;;;;;;;;;;;;5015973;28;19913;-75
2022/05/02 17:36:47;;;;;;;;;;;;;;;;;;4998461;28;19972;-75
2022/05/02 17:39:18;;;;;;;;;;;;;;;;;;4998393;28;19919;-75
2022/05/02 17:41:43;;;;;;;;;;;;;;;;;;4997981;28;19943;-75
2022/05/02 17:44:08;;;;;;;;;;;;;;;;;;4997996;28;20402;-76
2022/05/02 17:46:37;;;;;;;;;;;;;;;;;;4998045;28;19913;-75
2022/05/02 17:49:06;;;;;;;;;;;;;;;;;;5015441;28;19917;-76
2022/05/02 17:51:31;;;;;;;;;;;;;;;;;;4997742;28;19925;-76
2022/05/02 17:53:58;;;;;;;;;;;;;;;;;;5015411;28;19921;-75
2022/05/02 17:56:23;;;;;;;;;;;;;;;;;;4998160;28;19937;-76
2022/05/02 17:58:55;;;;;;;;;;;;;;;;;;5015275;28;20319;-76